Time;durP1;ratioP1;P1;durP2;ratioP2;P2;SDS_P1;SDS_P2;PMS_P1;PMS_P2;Temp;Humidity;BMP_temperature;BMP_pressure;BME280_temperature;BME280_humidity;BME280_pressure;Samples;Min_cycle;Max_cycle;Signal;HPM_P1;HPM_P2
2023/04/04 00:00:21;;;;;;;13.00;2.83;;;-3.50;92.10;;;;;;5066952;28;20047;-73
2023/04/04 00:02:48;;;;;;;8.15;2.65;;;-3.50;92.40;;;;;;5060573;28;20825;-73
2023/04/04 00:05:15;;;;;;;7.53;2.00;;;-3.50;92.00;;;;;;5066852;28;20055;-73
2023/04/04 00:07:46;;;;;;;12.15;2.28;;;-3.50;92.20;;;;;;5063468;28;20504;-73
2023/04/04 00:10:13;;;;;;;8.45;2.08;;;-3.50;92.20;;;;;;5046913;28;20059;-73
2023/04/04 00:12:41;;;;;;;11.45;2.30;;;-3.50;92.40;;;;;;5072145;28;20068;-73
2023/04/04 00:15:08;;;;;;;12.20;2.28;;;-3.60;92.20;;;;;;5059127;28;20143;-73
2023/04/04 00:17:35;;;;;;;8.40;2.80;;;-3.60;92.20;;;;;;5066295;28;20828;-73
2023/04/04 00:20:03;;;;;;;9.88;2.30;;;-3.60;92.20;;;;;;5064997;28;20141;-73
2023/04/04 00:22:30;;;;;;;5.97;1.08;;;-3.60;92.40;;;;;;5064160;28;20048;-73
2023/04/04 00:24:57;;;;;;;11.70;2.03;;;-3.70;93.00;;;;;;5059840;28;20091;-73
2023/04/04 00:27:25;;;;;;;5.82;2.47;;;-3.70;93.20;;;;;;5045488;28;20616;-73
2023/04/04 00:29:52;;;;;;;4.05;1.63;;;-3.80;94.00;;;;;;5054541;28;20044;-75
2023/04/04 00:32:19;;;;;;;11.10;2.65;;;-3.80;93.90;;;;;;5067664;28;20048;-75
2023/04/04 00:34:51;;;;;;;3.63;1.70;;;-3.80;93.70;;;;;;5048825;28;20114;-75
2023/04/04 00:37:18;;;;;;;4.28;1.80;;;-3.90;93.40;;;;;;5065005;28;20037;-75
2023/04/04 00:39:46;;;;;;;8.93;2.72;;;-3.90;93.90;;;;;;5046394;28;20060;-76
2023/04/04 00:42:13;;;;;;;4.65;1.63;;;-3.90;94.30;;;;;;5062959;28;20150;-75
2023/04/04 00:44:40;;;;;;;5.18;1.80;;;-4.00;94.10;;;;;;5067294;28;20048;-75
2023/04/04 00:47:07;;;;;;;5.03;2.13;;;-4.00;94.20;;;;;;5039368;28;20051;-76
2023/04/04 00:49:33;;;;;;;5.55;1.75;;;-4.00;94.60;;;;;;5065258;28;20151;-75
2023/04/04 00:52:00;;;;;;;20.63;2.53;;;-4.10;94.30;;;;;;5065178;28;20048;-76
2023/04/04 00:54:29;;;;;;;4.15;1.83;;;-4.10;94.30;;;;;;5072236;28;20078;-75
2023/04/04 00:56:57;;;;;;;8.05;2.22;;;-4.10;94.50;;;;;;5063645;28;20059;-76
2023/04/04 00:59:26;;;;;;;4.53;2.15;;;-4.10;94.60;;;;;;5059086;28;20158;-75
2023/04/04 01:01:54;;;;;;;5.82;2.50;;;-4.10;94.90;;;;;;5063978;28;20041;-75
2023/04/04 01:04:21;;;;;;;8.65;2.30;;;-4.10;94.80;;;;;;5069227;28;20118;-76
2023/04/04 01:06:49;;;;;;;9.30;2.30;;;-4.10;95.20;;;;;;5066446;28;20049;-75
2023/04/04 01:09:17;;;;;;;12.20;1.73;;;-4.00;95.10;;;;;;5038754;28;20502;-75
2023/04/04 01:11:44;;;;;;;6.72;1.77;;;-4.10;95.20;;;;;;5067997;28;20070;-76
2023/04/04 01:14:11;;;;;;;15.15;2.55;;;-4.10;95.70;;;;;;5065660;28;20044;-75
2023/04/04 01:16:39;;;;;;;10.55;2.25;;;-4.10;95.80;;;;;;5042421;28;20064;-75
2023/04/04 01:19:13;;;;;;;7.90;2.25;;;-4.10;96.40;;;;;;5063701;28;20048;-75
2023/04/04 01:21:41;;;;;;;6.40;2.20;;;-4.20;96.30;;;;;;5061211;28;20052;-75
2023/04/04 01:24:12;;;;;;;5.43;2.35;;;-4.20;96.20;;;;;;5058726;28;20660;-75
2023/04/04 01:26:38;;;;;;;14.55;2.60;;;-4.20;96.50;;;;;;5066786;28;20056;-75
2023/04/04 01:29:05;;;;;;;7.43;2.58;;;-4.20;96.60;;;;;;5052120;28;20054;-75
2023/04/04 01:31:42;;;;;;;7.60;2.65;;;-4.30;96.40;;;;;;5063449;28;20052;-75
2023/04/04 01:34:47;;;;;;;8.32;2.20;;;-4.20;96.80;;;;;;5062299;28;20159;-75
2023/04/04 01:37:34;;;;;;;13.63;2.20;;;-4.20;96.70;;;;;;5052683;28;20503;-75
2023/04/04 01:40:16;;;;;;;8.82;2.35;;;-4.20;96.60;;;;;;5064123;28;20048;-75
2023/04/04 01:42:44;;;;;;;6.25;2.28;;;-4.30;96.80;;;;;;5068816;28;20540;-75
2023/04/04 01:45:11;;;;;;;6.45;2.45;;;-4.30;97.10;;;;;;5036769;28;20044;-76
2023/04/04 01:47:42;;;;;;;5.75;2.72;;;-4.30;96.90;;;;;;5046736;28;20381;-75
2023/04/04 01:50:10;;;;;;;13.50;2.70;;;-4.20;97.30;;;;;;5049535;28;20051;-76
2023/04/04 01:52:37;;;;;;;9.55;2.83;;;-4.20;97.40;;;;;;5062754;28;20049;-75
2023/04/04 01:55:04;;;;;;;6.30;2.90;;;-4.20;97.70;;;;;;5064645;28;20487;-75
2023/04/04 01:57:31;;;;;;;21.80;3.05;;;-4.20;97.40;;;;;;5062401;28;20052;-75
2023/04/04 01:59:58;;;;;;;10.00;2.95;;;-4.20;97.60;;;;;;5061956;28;20381;-75
2023/04/04 02:02:25;;;;;;;5.97;2.35;;;-4.20;97.60;;;;;;5064166;28;20067;-75
2023/04/04 02:04:52;;;;;;;9.40;2.95;;;-4.20;97.50;;;;;;5061929;28;20498;-75
2023/04/04 02:07:19;;;;;;;7.50;2.17;;;-4.20;97.20;;;;;;5064684;28;20788;-75
2023/04/04 02:09:46;;;;;;;12.65;2.78;;;-4.20;97.10;;;;;;5067953;28;20048;-75
2023/04/04 02:12:13;;;;;;;6.18;2.20;;;-4.30;96.80;;;;;;5064613;28;20058;-76
2023/04/04 02:14:40;;;;;;;9.25;3.13;;;-4.30;96.80;;;;;;5062935;28;20049;-75
2023/04/04 02:17:06;;;;;;;7.82;2.83;;;-4.40;96.80;;;;;;5062414;28;20065;-75
2023/04/04 02:19:34;;;;;;;8.88;2.55;;;-4.40;97.00;;;;;;5062080;28;20049;-76
2023/04/04 02:22:01;;;;;;;13.05;3.00;;;-4.40;97.00;;;;;;5065960;28;20045;-75
2023/04/04 02:24:28;;;;;;;5.82;2.88;;;-4.40;97.20;;;;;;5057281;28;20052;-75
2023/04/04 02:26:55;;;;;;;6.22;3.22;;;-4.40;97.40;;;;;;5059300;28;20055;-75
2023/04/04 02:29:22;;;;;;;3.92;1.92;;;-4.40;97.60;;;;;;5049266;28;20459;-75
2023/04/04 02:31:49;;;;;;;13.23;3.00;;;-4.30;97.70;;;;;;5064844;28;20693;-76
2023/04/04 02:34:16;;;;;;;12.07;2.70;;;-4.30;97.40;;;;;;5061668;28;20052;-76
2023/04/04 02:36:43;;;;;;;10.73;3.00;;;-4.30;97.40;;;;;;5063127;28;20048;-75
2023/04/04 02:39:09;;;;;;;8.00;2.65;;;-4.30;97.20;;;;;;5067375;28;20432;-75
2023/04/04 02:41:36;;;;;;;14.02;3.67;;;-4.40;97.40;;;;;;5068521;28;20052;-75
2023/04/04 02:44:03;;;;;;;13.45;3.72;;;-4.40;97.50;;;;;;5062193;28;20045;-75
2023/04/04 02:46:30;;;;;;;6.63;2.95;;;-4.30;98.30;;;;;;5055858;28;20045;-75
2023/04/04 02:48:56;;;;;;;9.60;3.45;;;-4.20;98.80;;;;;;5061736;28;20060;-75
2023/04/04 02:51:23;;;;;;;8.80;3.38;;;-4.20;98.30;;;;;;5062691;28;20053;-75
2023/04/04 02:53:50;;;;;;;14.00;2.88;;;-4.20;98.10;;;;;;5039177;28;20055;-76
2023/04/04 02:56:17;;;;;;;7.18;2.97;;;-4.20;98.30;;;;;;5048112;28;20049;-76
2023/04/04 02:58:44;;;;;;;10.93;3.67;;;-4.20;98.20;;;;;;5059421;28;20409;-75
2023/04/04 03:01:11;;;;;;;8.07;3.10;;;-4.30;98.20;;;;;;5038664;28;20040;-75
2023/04/04 03:03:38;;;;;;;7.40;3.28;;;-4.30;98.10;;;;;;5057026;28;20056;-75
2023/04/04 03:06:05;;;;;;;8.13;3.42;;;-4.20;98.80;;;;;;5060886;28;20047;-76
2023/04/04 03:08:33;;;;;;;9.73;3.25;;;-4.20;98.30;;;;;;5059055;28;20496;-76
2023/04/04 03:11:01;;;;;;;7.22;3.42;;;-4.20;98.10;;;;;;5060593;28;20055;-76
2023/04/04 03:13:28;;;;;;;10.18;3.28;;;-4.20;98.00;;;;;;5063347;28;20051;-75
2023/04/04 03:16:03;;;;;;;9.13;3.05;;;-4.30;97.60;;;;;;5069466;28;20090;-75
2023/04/04 03:18:30;;;;;;;9.35;3.38;;;-4.30;97.30;;;;;;5062716;28;20052;-75
2023/04/04 03:20:57;;;;;;;11.23;3.58;;;-4.30;97.20;;;;;;5049043;28;20053;-76
2023/04/04 03:23:24;;;;;;;10.93;2.85;;;-4.40;97.30;;;;;;5053852;28;20179;-76
2023/04/04 03:25:50;;;;;;;17.27;3.28;;;-4.40;97.20;;;;;;5052004;28;20366;-74
2023/04/04 03:28:17;;;;;;;6.40;3.10;;;-4.40;97.50;;;;;;5061079;28;20068;-74
2023/04/04 03:30:44;;;;;;;10.88;3.22;;;-4.40;98.00;;;;;;5070203;28;20044;-74
2023/04/04 03:33:11;;;;;;;5.93;3.00;;;-4.40;97.80;;;;;;5047853;28;20053;-74
2023/04/04 03:35:38;;;;;;;11.73;3.35;;;-4.40;98.40;;;;;;5066953;28;20048;-74
2023/04/04 03:38:06;;;;;;;8.57;3.00;;;-4.40;98.40;;;;;;5058029;28;20048;-74
2023/04/04 03:40:33;;;;;;;20.20;3.78;;;-4.40;97.80;;;;;;5060225;28;20056;-74
2023/04/04 03:43:01;;;;;;;14.15;3.38;;;-4.40;97.60;;;;;;5071504;28;20155;-74
2023/04/04 03:45:31;;;;;;;6.70;2.78;;;-4.40;97.40;;;;;;5042388;28;20060;-74
2023/04/04 03:47:58;;;;;;;14.52;4.13;;;-4.40;97.60;;;;;;5067834;28;20601;-74
2023/04/04 03:50:25;;;;;;;5.10;2.58;;;-4.40;98.10;;;;;;5056165;28;20081;-74
2023/04/04 03:52:52;;;;;;;12.25;4.00;;;-4.40;98.10;;;;;;5063370;28;20052;-74
2023/04/04 03:55:18;;;;;;;9.15;3.58;;;-4.40;98.00;;;;;;5056966;28;20048;-74
2023/04/04 03:57:46;;;;;;;8.70;3.33;;;-4.40;97.70;;;;;;5072508;28;20064;-74
2023/04/04 04:00:13;;;;;;;10.23;2.70;;;-4.40;97.80;;;;;;5071960;28;20037;-74
2023/04/04 04:02:39;;;;;;;11.60;3.17;;;-4.40;97.70;;;;;;5064241;28;20111;-74
2023/04/04 04:05:08;;;;;;;10.60;3.55;;;-4.50;97.70;;;;;;5061597;28;20758;-74
2023/04/04 04:07:35;;;;;;;12.80;3.28;;;-4.50;97.50;;;;;;5064286;28;20057;-74
2023/04/04 04:10:02;;;;;;;9.45;4.45;;;-4.50;97.70;;;;;;5061655;28;20048;-74
2023/04/04 04:12:28;;;;;;;17.98;4.97;;;-4.50;98.00;;;;;;5060595;28;20526;-74
2023/04/04 04:14:55;;;;;;;8.80;3.90;;;-4.40;98.50;;;;;;5063561;28;20052;-74
2023/04/04 04:17:22;;;;;;;12.05;4.03;;;-4.40;99.20;;;;;;5064612;28;20067;-74
2023/04/04 04:19:49;;;;;;;11.00;4.63;;;-4.40;99.40;;;;;;5061747;28;20041;-74
2023/04/04 04:22:16;;;;;;;14.52;4.70;;;-4.40;99.00;;;;;;5062359;28;20753;-74
2023/04/04 04:24:42;;;;;;;11.20;4.25;;;-4.40;99.40;;;;;;5064217;28;20425;-74
2023/04/04 04:27:09;;;;;;;10.30;4.03;;;-4.30;99.50;;;;;;5065309;28;20047;-74
2023/04/04 04:29:36;;;;;;;11.75;3.83;;;-4.30;99.60;;;;;;5064409;28;20056;-74
2023/04/04 04:32:03;;;;;;;10.80;3.30;;;-4.40;99.70;;;;;;5061933;28;20439;-74
2023/04/04 04:34:30;;;;;;;15.25;3.88;;;-4.40;99.70;;;;;;5063256;28;20129;-74
2023/04/04 04:36:57;;;;;;;21.48;4.22;;;-4.30;100.00;;;;;;5060767;28;20499;-74
2023/04/04 04:39:24;;;;;;;8.90;3.72;;;-4.30;100.00;;;;;;5063278;28;20048;-74
2023/04/04 04:41:50;;;;;;;9.10;3.63;;;-4.30;100.00;;;;;;5062188;28;20051;-74
2023/04/04 04:44:17;;;;;;;16.05;3.80;;;-4.30;100.00;;;;;;5063035;28;20057;-74
2023/04/04 04:46:44;;;;;;;13.77;3.60;;;-4.30;100.00;;;;;;5064260;28;20051;-74
2023/04/04 04:49:11;;;;;;;12.13;4.57;;;-4.30;100.00;;;;;;5062273;28;20052;-74
2023/04/04 04:51:38;;;;;;;16.98;4.28;;;-4.30;100.00;;;;;;5065122;28;20133;-74
2023/04/04 04:54:05;;;;;;;13.23;5.13;;;-4.30;100.00;;;;;;5043385;28;20062;-74
2023/04/04 04:56:31;;;;;;;12.02;3.97;;;-4.30;100.00;;;;;;5062153;28;20411;-74
2023/04/04 04:58:58;;;;;;;17.90;4.57;;;-4.30;100.00;;;;;;5041048;28;20102;-74
2023/04/04 05:01:25;;;;;;;16.67;4.28;;;-4.20;100.00;;;;;;5038785;28;20053;-74
2023/04/04 05:03:52;;;;;;;15.18;4.85;;;-4.20;100.00;;;;;;5039571;28;20706;-73
2023/04/04 05:06:19;;;;;;;8.20;4.35;;;-4.10;100.00;;;;;;5063653;28;20820;-74
2023/04/04 05:08:46;;;;;;;10.68;4.05;;;-4.10;100.00;;;;;;5038887;28;20041;-73
2023/04/04 05:11:13;;;;;;;15.43;4.70;;;-4.10;100.00;;;;;;5061157;28;20508;-73
2023/04/04 05:13:40;;;;;;;16.45;4.32;;;-4.10;100.00;;;;;;5041909;28;20077;-74
2023/04/04 05:16:06;;;;;;;13.40;3.75;;;-4.10;100.00;;;;;;5063310;28;20128;-74
2023/04/04 05:18:33;;;;;;;13.82;4.35;;;-4.10;100.00;;;;;;5039961;28;20129;-75
2023/04/04 05:21:00;;;;;;;11.35;3.92;;;-4.10;100.00;;;;;;5063137;28;20838;-74
2023/04/04 05:23:27;;;;;;;9.50;3.88;;;-4.10;100.00;;;;;;5047651;28;20049;-74
2023/04/04 05:25:54;;;;;;;19.95;5.10;;;-4.00;100.00;;;;;;5064668;28;20053;-74
2023/04/04 05:28:22;;;;;;;11.18;4.72;;;-3.90;100.00;;;;;;5064419;28;20668;-76
2023/04/04 05:30:49;;;;;;;8.40;4.20;;;-3.90;100.00;;;;;;5065629;28;20060;-74
2023/04/04 05:33:16;;;;;;;15.32;4.30;;;-3.90;100.00;;;;;;5052252;28;20048;-83
2023/04/04 05:35:43;;;;;;;14.50;4.47;;;-3.80;100.00;;;;;;5046921;28;20589;-81
2023/04/04 05:38:10;;;;;;;15.02;5.15;;;-3.80;99.60;;;;;;5062725;28;20082;-81
2023/04/04 05:40:36;;;;;;;17.45;5.05;;;-3.80;99.70;;;;;;5049859;28;20059;-79
2023/04/04 05:43:04;;;;;;;8.75;4.63;;;-3.70;99.90;;;;;;5043191;28;20052;-77
2023/04/04 05:45:30;;;;;;;15.38;5.07;;;-3.70;99.90;;;;;;5056644;28;20052;-75
2023/04/04 05:47:57;;;;;;;23.48;5.13;;;-3.70;100.00;;;;;;5040539;28;20049;-75
2023/04/04 05:50:24;;;;;;;11.02;4.65;;;-3.60;100.00;;;;;;5063334;28;20095;-75
2023/04/04 05:52:54;;;;;;;14.63;5.43;;;-3.50;100.00;;;;;;5062103;28;20512;-73
2023/04/04 05:55:22;;;;;;;13.50;5.00;;;-3.40;100.00;;;;;;5060093;28;20051;-74
2023/04/04 05:57:49;;;;;;;33.97;5.35;;;-3.30;100.00;;;;;;5045301;28;20072;-75
2023/04/04 06:00:18;;;;;;;15.63;5.15;;;-3.20;100.00;;;;;;5046494;28;20070;-75
2023/04/04 06:02:45;;;;;;;14.07;4.93;;;-3.10;100.00;;;;;;5064214;28;20045;-76
2023/04/04 06:05:12;;;;;;;16.90;4.68;;;-3.00;100.00;;;;;;5046090;28;20486;-75
2023/04/04 06:07:38;;;;;;;15.07;5.55;;;-3.00;100.00;;;;;;5061316;28;20048;-76
2023/04/04 06:10:06;;;;;;;19.70;5.70;;;-2.90;100.00;;;;;;5061973;28;20581;-75
2023/04/04 06:12:33;;;;;;;21.02;5.65;;;-2.80;100.00;;;;;;5057851;28;20078;-76
2023/04/04 06:15:00;;;;;;;17.45;5.07;;;-2.80;100.00;;;;;;5063644;28;20060;-75
2023/04/04 06:17:27;;;;;;;17.50;5.55;;;-2.70;100.00;;;;;;5058599;28;20049;-75
2023/04/04 06:19:54;;;;;;;18.40;5.32;;;-2.60;100.00;;;;;;5062001;28;20505;-75
2023/04/04 06:22:21;;;;;;;17.45;6.03;;;-2.50;100.00;;;;;;5063109;28;20096;-75
2023/04/04 06:24:47;;;;;;;22.38;6.15;;;-2.30;100.00;;;;;;5064208;28;20052;-75
2023/04/04 06:27:14;;;;;;;20.05;5.57;;;-2.10;100.00;;;;;;5063989;28;20055;-75
2023/04/04 06:29:41;;;;;;;20.30;7.53;;;-1.60;100.00;;;;;;5046320;28;20049;-75
2023/04/04 06:32:08;;;;;;;24.25;7.32;;;-1.00;99.60;;;;;;5063949;28;20106;-75
2023/04/04 06:34:35;;;;;;;23.15;7.85;;;-0.40;97.30;;;;;;5063556;28;20059;-75
2023/04/04 06:37:02;;;;;;;38.75;9.80;;;0.00;95.40;;;;;;5062743;28;20056;-74
2023/04/04 06:39:30;;;;;;;21.05;6.88;;;0.40;91.80;;;;;;5063222;28;20059;-75
2023/04/04 06:41:57;;;;;;;13.57;5.40;;;1.00;90.00;;;;;;5045762;28;20170;-75
2023/04/04 06:44:24;;;;;;;14.23;4.72;;;1.40;86.70;;;;;;5064072;28;20056;-75
2023/04/04 06:46:50;;;;;;;17.08;4.68;;;2.00;83.40;;;;;;5064259;28;20051;-75
2023/04/04 06:49:17;;;;;;;22.77;5.03;;;2.60;81.50;;;;;;5067583;28;20044;-75
2023/04/04 06:51:45;;;;;;;22.05;4.95;;;3.30;78.30;;;;;;5049566;28;20095;-75
2023/04/04 06:54:12;;;;;;;14.60;4.55;;;3.80;74.70;;;;;;5049517;28;20067;-75
2023/04/04 06:56:38;;;;;;;17.40;4.50;;;4.20;73.60;;;;;;5063478;28;20045;-74
2023/04/04 06:59:05;;;;;;;11.50;3.70;;;4.40;71.70;;;;;;5049542;28;20673;-75
2023/04/04 07:01:33;;;;;;;12.30;3.80;;;4.60;70.00;;;;;;5049827;28;20788;-75
2023/04/04 07:04:00;;;;;;;9.88;3.38;;;5.20;69.10;;;;;;5059451;28;20052;-75
2023/04/04 07:06:28;;;;;;;11.38;4.18;;;5.70;67.00;;;;;;5045264;28;20041;-73
2023/04/04 07:08:55;;;;;;;14.77;3.50;;;5.90;65.70;;;;;;5059979;28;20123;-72
2023/04/04 07:11:25;;;;;;;13.65;3.33;;;6.20;65.70;;;;;;5066306;28;20092;-73
2023/04/04 07:13:52;;;;;;;10.88;2.58;;;6.90;63.50;;;;;;5063435;28;20132;-73
2023/04/04 07:16:19;;;;;;;11.60;2.80;;;7.50;61.50;;;;;;5066583;28;20093;-72
2023/04/04 07:18:46;;;;;;;12.75;3.08;;;7.90;60.30;;;;;;5048357;28;20121;-72
2023/04/04 07:21:13;;;;;;;16.67;2.63;;;8.10;60.60;;;;;;5041234;28;20048;-71
2023/04/04 07:23:40;;;;;;;6.20;2.10;;;8.40;59.80;;;;;;5064773;28;20477;-75
2023/04/04 07:26:07;;;;;;;16.40;2.30;;;8.10;57.50;;;;;;5066321;28;20055;-74
2023/04/04 07:28:33;;;;;;;9.70;2.05;;;7.90;58.10;;;;;;5048105;28;20135;-74
2023/04/04 07:31:01;;;;;;;8.98;1.85;;;8.30;58.40;;;;;;5061532;28;20079;-74
2023/04/04 07:33:27;;;;;;;7.72;2.90;;;8.50;57.90;;;;;;5063784;28;20051;-74
2023/04/04 07:35:54;;;;;;;8.70;1.95;;;8.20;56.80;;;;;;5066257;28;20048;-74
2023/04/04 07:38:21;;;;;;;4.65;1.73;;;7.60;58.40;;;;;;5066186;28;20117;-73
2023/04/04 07:40:49;;;;;;;10.02;2.25;;;7.80;59.00;;;;;;5063789;28;20040;-73
2023/04/04 07:43:16;;;;;;;6.03;2.17;;;8.40;58.60;;;;;;5063243;28;20404;-75
2023/04/04 07:45:43;;;;;;;8.05;2.10;;;8.50;58.70;;;;;;5066831;28;20052;-74
2023/04/04 07:48:10;;;;;;;7.75;1.60;;;8.80;58.80;;;;;;5066180;28;20052;-74
2023/04/04 07:50:37;;;;;;;3.33;1.50;;;9.40;56.50;;;;;;5062303;28;20501;-74
2023/04/04 07:53:04;;;;;;;17.50;1.75;;;9.00;56.40;;;;;;5064436;28;20135;-74
2023/04/04 07:55:31;;;;;;;4.97;1.55;;;8.70;58.40;;;;;;5061849;28;20049;-76
2023/04/04 07:57:57;;;;;;;5.25;1.35;;;9.80;56.30;;;;;;5064780;28;20045;-75
2023/04/04 08:00:25;;;;;;;2.40;1.25;;;9.80;56.20;;;;;;5063514;28;20049;-75
2023/04/04 08:02:53;;;;;;;8.30;1.85;;;9.90;54.90;;;;;;5065859;28;20045;-74
2023/04/04 08:05:20;;;;;;;7.55;1.67;;;10.20;54.40;;;;;;5046723;28;20675;-72
2023/04/04 08:07:47;;;;;;;6.60;1.83;;;10.00;55.10;;;;;;5051917;28;20056;-76
2023/04/04 08:10:16;;;;;;;5.63;1.80;;;10.50;57.40;;;;;;5063593;28;20048;-74
2023/04/04 08:12:43;;;;;;;7.60;2.03;;;10.50;53.90;;;;;;5061401;28;20052;-74
2023/04/04 08:15:11;;;;;;;9.48;1.90;;;10.50;54.50;;;;;;5061044;28;20059;-74
2023/04/04 08:17:38;;;;;;;8.60;2.28;;;10.70;53.00;;;;;;5065238;28;20086;-74
2023/04/04 08:20:05;;;;;;;8.32;2.05;;;10.80;53.80;;;;;;5064695;28;20114;-72
2023/04/04 08:22:32;;;;;;;6.07;1.83;;;10.40;53.70;;;;;;5048189;28;20048;-72
2023/04/04 08:24:59;;;;;;;11.52;2.63;;;10.70;53.70;;;;;;5064973;28;20053;-72
2023/04/04 08:27:26;;;;;;;6.35;1.88;;;11.50;51.90;;;;;;5063562;28;20048;-72
2023/04/04 08:29:53;;;;;;;6.35;2.28;;;10.80;52.50;;;;;;5053524;28;20052;-72
2023/04/04 08:32:21;;;;;;;8.80;2.10;;;11.40;51.80;;;;;;5048251;28;20048;-73
2023/04/04 08:34:48;;;;;;;5.88;2.00;;;11.20;51.20;;;;;;5064074;28;20040;-73
2023/04/04 08:37:15;;;;;;;5.95;1.95;;;10.30;52.70;;;;;;5065551;28;20045;-73
2023/04/04 08:39:45;;;;;;;6.03;1.92;;;9.90;52.70;;;;;;5059109;28;20048;-73
2023/04/04 08:42:15;;;;;;;18.48;2.30;;;10.00;53.40;;;;;;5063502;28;20498;-72
2023/04/04 08:44:44;;;;;;;6.38;1.70;;;10.40;54.10;;;;;;5062941;28;20052;-73
2023/04/04 08:47:13;;;;;;;6.07;1.90;;;10.30;49.70;;;;;;5054158;28;20144;-74
2023/04/04 08:49:45;;;;;;;5.03;1.67;;;10.50;49.30;;;;;;5061522;28;20699;-74
2023/04/04 08:52:16;;;;;;;4.35;1.38;;;10.70;51.40;;;;;;5058806;28;20048;-73
2023/04/04 08:54:45;;;;;;;7.82;2.35;;;10.00;50.00;;;;;;5062294;28;20063;-73
2023/04/04 08:57:12;;;;;;;17.20;7.40;;;9.50;49.10;;;;;;5064236;28;20049;-72
2023/04/04 08:59:39;;;;;;;15.95;6.50;;;9.70;49.50;;;;;;5046210;28;20080;-72
2023/04/04 09:02:08;;;;;;;19.38;5.72;;;9.80;49.10;;;;;;5062324;28;20106;-73
2023/04/04 09:04:36;;;;;;;12.80;3.60;;;10.10;49.40;;;;;;5054783;28;20145;-73
2023/04/04 09:07:05;;;;;;;6.30;2.78;;;9.40;51.50;;;;;;5057790;28;20052;-73
2023/04/04 09:09:33;;;;;;;9.00;2.90;;;9.40;51.60;;;;;;5058070;28;20040;-74
2023/04/04 09:12:01;;;;;;;31.35;6.63;;;9.60;52.80;;;;;;5042266;28;20567;-75
2023/04/04 09:14:29;;;;;;;15.55;3.03;;;9.90;54.00;;;;;;5043857;28;20049;-74
2023/04/04 09:16:56;;;;;;;8.55;1.98;;;10.60;51.60;;;;;;5058300;28;20052;-73
2023/04/04 09:19:23;;;;;;;7.50;2.42;;;10.60;49.90;;;;;;5059431;28;20056;-74
2023/04/04 09:21:52;;;;;;;7.07;2.38;;;10.90;49.70;;;;;;5060216;28;20044;-73
2023/04/04 09:24:19;;;;;;;9.02;2.10;;;11.00;49.90;;;;;;5045977;28;20114;-72
2023/04/04 09:26:46;;;;;;;8.15;2.50;;;11.00;49.80;;;;;;5045405;28;20050;-75
2023/04/04 09:29:16;;;;;;;4.38;1.70;;;11.10;49.20;;;;;;5062608;28;20063;-74
2023/04/04 09:31:45;;;;;;;5.75;1.95;;;12.20;48.60;;;;;;5052897;28;20052;-75
2023/04/04 09:34:13;;;;;;;4.57;1.50;;;12.30;48.20;;;;;;5061384;28;20106;-73
2023/04/04 09:36:40;;;;;;;5.30;1.67;;;12.70;46.10;;;;;;5057204;28;20617;-73
2023/04/04 09:39:08;;;;;;;5.88;1.98;;;11.80;45.00;;;;;;5052086;28;20481;-73
2023/04/04 09:41:38;;;;;;;6.47;2.45;;;10.80;48.10;;;;;;5054277;28;20055;-73
2023/04/04 09:44:08;;;;;;;10.43;2.47;;;10.40;48.50;;;;;;5059548;28;20055;-74
2023/04/04 09:46:36;;;;;;;7.18;2.17;;;10.30;48.50;;;;;;5061802;28;20052;-75
2023/04/04 09:49:03;;;;;;;9.30;2.28;;;9.70;49.30;;;;;;5060546;28;20053;-72
2023/04/04 09:51:43;;;;;;;7.95;2.30;;;9.30;51.80;;;;;;5051475;28;20135;-72
2023/04/04 09:54:10;;;;;;;12.15;2.10;;;9.30;51.90;;;;;;5057534;28;20075;-74
2023/04/04 09:56:52;;;;;;;39.20;10.75;;;8.70;53.10;;;;;;5061744;28;20056;-74
2023/04/04 09:59:19;;;;;;;39.58;12.30;;;8.50;54.80;;;;;;5063509;28;20048;-75
2023/04/04 10:01:49;;;;;;;9.38;3.75;;;8.40;54.70;;;;;;5060680;28;20550;-74
2023/04/04 10:04:17;;;;;;;6.93;2.50;;;8.20;55.20;;;;;;5064472;28;20056;-74
2023/04/04 10:06:45;;;;;;;6.55;1.48;;;7.70;56.20;;;;;;5064837;28;20048;-74
2023/04/04 10:09:12;;;;;;;10.25;5.00;;;8.20;53.50;;;;;;5064451;28;20056;-74
2023/04/04 10:11:39;;;;;;;6.20;2.90;;;8.80;53.60;;;;;;5063294;28;20052;-75
2023/04/04 10:14:08;;;;;;;7.03;2.63;;;9.60;52.70;;;;;;5064777;28;20055;-75
2023/04/04 10:16:36;;;;;;;3.97;1.98;;;9.90;49.20;;;;;;5063881;28;20444;-75
2023/04/04 10:19:06;;;;;;;15.90;3.60;;;9.90;47.40;;;;;;5061841;28;20131;-75
2023/04/04 10:21:34;;;;;;;3.42;1.60;;;9.50;49.60;;;;;;5049517;28;20056;-75
2023/04/04 10:24:07;;;;;;;6.65;1.52;;;10.20;50.10;;;;;;5064011;28;20044;-75
2023/04/04 10:26:35;;;;;;;7.25;1.58;;;11.50;45.80;;;;;;5063918;28;20057;-73
2023/04/04 10:29:04;;;;;;;4.10;2.13;;;12.40;45.30;;;;;;5063302;28;20837;-72
2023/04/04 10:31:34;;;;;;;5.72;1.25;;;13.20;42.50;;;;;;5062788;28;20087;-73
2023/04/04 10:34:27;;;;;;;10.02;2.20;;;13.30;41.50;;;;;;5052158;28;20479;-73
2023/04/04 10:37:13;;;;;;;6.45;1.88;;;14.90;42.60;;;;;;5043242;28;20501;-73
2023/04/04 10:42:12;;;;;;;4.55;1.15;;;16.20;39.60;;;;;;4980667;28;20688;-76
2023/04/04 10:44:40;;;;;;;4.03;1.40;;;15.40;38.20;;;;;;4982327;28;20563;-74
2023/04/04 10:47:20;;;;;;;7.55;1.80;;;15.00;40.70;;;;;;4984768;28;20057;-74
2023/04/04 10:49:49;;;;;;;11.38;1.50;;;15.50;39.90;;;;;;4984279;28;20477;-74
2023/04/04 10:52:22;;;;;;;6.43;1.80;;;14.70;39.90;;;;;;4985608;28;20148;-74
2023/04/04 10:54:58;;;;;;;7.45;1.48;;;14.30;39.40;;;;;;4978741;28;20050;-78
2023/04/04 10:57:27;;;;;;;3.13;1.60;;;13.20;40.80;;;;;;4991838;28;20054;-81
2023/04/04 11:00:30;;;;;;;8.68;1.92;;;12.80;42.70;;;;;;4974800;28;20052;-73
2023/04/04 11:03:01;;;;;;;6.88;1.45;;;11.90;43.50;;;;;;4998809;28;20054;-72
2023/04/04 11:05:42;;;;;;;14.48;1.52;;;11.70;44.70;;;;;;4998661;28;20092;-72
2023/04/04 11:08:12;;;;;;;5.00;1.20;;;11.90;45.60;;;;;;4963052;28;20069;-73
2023/04/04 11:10:46;;;;;;;2.05;1.15;;;12.50;45.80;;;;;;4982065;28;20498;-74
2023/04/04 11:13:17;;;;;;;8.88;2.42;;;13.30;44.40;;;;;;4983065;28;20057;-74
2023/04/04 11:16:08;;;;;;;11.98;2.25;;;13.60;41.30;;;;;;4981961;28;20117;-75
2023/04/04 11:18:41;;;;;;;4.40;1.30;;;12.60;42.10;;;;;;4995815;28;20089;-72
2023/04/04 11:21:08;;;;;;;9.90;1.70;;;12.70;43.50;;;;;;4983860;28;20591;-73
2023/04/04 11:23:47;;;;;;;3.78;1.40;;;12.80;45.70;;;;;;4983539;28;20407;-73
2023/04/04 11:26:33;;;;;;;6.30;1.30;;;13.80;42.60;;;;;;4983036;28;20046;-73
2023/04/04 11:29:02;;;;;;;19.17;1.98;;;13.20;41.30;;;;;;4979883;28;20046;-73
2023/04/04 11:31:39;;;;;;;7.88;1.60;;;12.40;43.20;;;;;;4983899;28;20081;-72
2023/04/04 11:34:08;;;;;;;5.30;1.88;;;11.60;46.40;;;;;;4983178;28;20049;-73
2023/04/04 11:36:35;;;;;;;6.07;2.05;;;13.00;45.20;;;;;;4988613;28;20050;-73
2023/04/04 11:39:27;;;;;;;2.63;1.13;;;12.70;42.60;;;;;;4985744;28;20517;-73
2023/04/04 11:41:57;;;;;;;10.52;2.10;;;12.90;43.50;;;;;;4987735;28;20042;-72
2023/04/04 11:44:29;;;;;;;4.47;1.42;;;13.90;45.30;;;;;;4989804;28;20047;-72
2023/04/04 11:47:05;;;;;;;4.93;1.67;;;14.00;42.80;;;;;;4985521;28;20065;-73
2023/04/04 11:49:44;;;;;;;5.78;1.83;;;13.70;45.70;;;;;;4988087;28;20070;-74
2023/04/04 11:52:13;;;;;;;4.22;1.40;;;15.30;42.40;;;;;;4985870;28;20057;-73
2023/04/04 11:54:42;;;;;;;4.95;1.55;;;15.60;42.60;;;;;;5006480;28;20070;-73
2023/04/04 11:57:27;;;;;;;4.65;1.65;;;15.90;41.60;;;;;;4971999;28;20050;-73
2023/04/04 11:59:54;;;;;;;6.60;1.80;;;15.70;37.90;;;;;;4999717;28;20505;-73
2023/04/04 12:02:33;;;;;;;4.72;1.70;;;14.70;39.20;;;;;;4982929;28;20060;-72
2023/04/04 12:05:00;;;;;;;5.63;1.60;;;13.40;40.00;;;;;;4986774;28;20193;-73
2023/04/04 12:07:30;;;;;;;8.73;2.20;;;12.50;41.20;;;;;;4984867;28;20490;-73
2023/04/04 12:09:57;;;;;;;5.95;2.00;;;11.90;43.40;;;;;;4985262;28;20498;-72
2023/04/04 12:12:26;;;;;;;6.55;1.48;;;12.10;43.70;;;;;;4989581;28;20069;-73
2023/04/04 12:14:53;;;;;;;9.23;2.00;;;11.70;43.50;;;;;;4989080;28;20056;-73
2023/04/04 12:17:33;;;;;;;11.10;2.22;;;12.70;43.60;;;;;;4987387;28;20058;-73
2023/04/04 12:20:00;;;;;;;5.80;1.80;;;12.50;42.80;;;;;;4986295;28;20058;-73
2023/04/04 12:22:27;;;;;;;7.28;2.08;;;11.80;44.50;;;;;;4985375;28;20483;-73
2023/04/04 12:24:57;;;;;;;13.77;4.22;;;10.90;45.70;;;;;;4987299;28;20502;-72
2023/04/04 12:27:24;;;;;;;22.75;11.18;;;10.90;49.50;;;;;;4985593;28;20047;-74
2023/04/04 12:29:51;;;;;;;5.78;2.47;;;12.20;47.80;;;;;;4985503;28;20053;-74
2023/04/04 12:32:18;;;;;;;15.80;5.85;;;11.90;44.60;;;;;;4976065;28;20076;-75
2023/04/04 12:34:46;;;;;;;24.17;11.60;;;11.40;47.60;;;;;;4985074;28;21755;-75
2023/04/04 12:37:18;;;;;;;5.47;2.75;;;12.20;48.10;;;;;;4985820;28;20061;-75
2023/04/04 12:39:49;;;;;;;29.52;13.70;;;13.20;43.20;;;;;;4999893;28;20065;-75
2023/04/04 12:42:24;;;;;;;50.88;23.05;;;12.80;43.10;;;;;;4998589;28;20057;-75
2023/04/04 12:44:52;;;;;;;25.80;11.68;;;12.10;42.90;;;;;;4984135;28;21506;-75
2023/04/04 12:47:21;;;;;;;13.07;6.38;;;11.10;44.70;;;;;;4983559;28;20132;-74
2023/04/04 12:49:48;;;;;;;10.57;2.22;;;10.20;49.20;;;;;;4985109;28;20121;-75
2023/04/04 12:52:26;;;;;;;13.73;5.50;;;11.00;47.90;;;;;;4983910;28;20054;-75